Aérodrome :
LOGIN :

S'inscrire | Disclaimer

   EN    FR    IT 

 










Légende :    VFR   VFR Marginal   IFR   IFR Intensif   IFR Très Intensif
Visi : 
Plafond : 
>= 8 km
>= 3000ft
5 à 8 km
1000 à 3000 ft
1500m à 5 km
500 à 1000 ft
800 à 1500m
200 à 500 ft
< 800m
< 200 ft
Symboles :   Orages  Brouillard  Fortes neiges  Fortes précipitations  Vent > 20 kt
SIGMETs :   Divers  Orages  Givrage  Turbulence  Onde Orograph.  Cendres Volcan.







- Altitude de l'aérodrome : 117 ft
- Code IATA : NWI
- Voir les cartes d'approche


EGSH - Norwich

DERNIER METAR :
  • 250620Z 26006KT 9999 FEW006 SCT020 02/01 Q1011

METARs EXPIRÉS :
  • 250550Z 29010KT 260V340 8000 -SHRA FEW006 SCT011 BKN016 02/01 Q1010 NOSIG
  • 250520Z 28007KT 7000 FEW003 BKN010 02/01 Q1010 RESN BECMG FEW045
  • 250450Z 29008KT 260V320 3500 SN SCT003 BKN007 BKN010 01/00 Q1010 RERA BECMG 9999 NSW FEW045
  • 250420Z AUTO 29011KT 260V330 9999 FEW004/// SCT011/// BKN015/// 02/01 Q1009
  • 250350Z AUTO 30013KT 270V350 4000 -SN SCT008/// BKN013/// BKN018/// 02/M00 Q1009

TAF TAF EGSH
Valide du 25 à 06h jusqu'au 25 à 15h UTC


250457Z 2506/2515 29009KT 3500 SN BKN007
BECMG 2506/2509 9999 NSW FEW045
TEMPO 2509/2515 34015G25KT 7000 SHRA
PROB30
TEMPO 2509/2515 4000 +SHRA SHGS BKN014
ATIS : +44 1603 420 640
Pas de NOTAMs connus pour ce terrain.



MET'MAP, la Météo Aéronautique d'un coup d'oeil ! - Copyright ORBIFLY Décembre 2007 - Disclaimer

ORBIFLY MET'MAP TEAM :

Programmation & Développement : Alexandra Zaïnal
Conception & Développement : Baudouin d'Aumeries
Co-Programmation & Développement : Marc-Olivier Méhu
Soutien technique & logistique : Manuel Goepfert

Contact : metmap@orbifly.com




SOURCES & CREDITS :

   NOAA